Time;durP1;ratioP1;P1;durP2;ratioP2;P2;SDS_P1;SDS_P2;PMS_P1;PMS_P2;Temp;Humidity;BMP_temperature;BMP_pressure;BME280_temperature;BME280_humidity;BME280_pressure;Samples;Min_cycle;Max_cycle;Signal;HPM_P1;HPM_P2
2022/04/25 00:00:32;;;;;;;;;;;;;;;17.39;65.22;98096.81;2086521;28;19928;-46
2022/04/25 00:01:32;;;;;;;;;;;;;;;17.41;65.10;98105.47;2089777;28;20149;-45
2022/04/25 00:02:35;;;;;;;;;;;;;;;17.42;65.27;98107.13;2085042;28;19928;-45
2022/04/25 00:03:36;;;;;;;;;;;;;;;17.42;65.22;98103.63;2087949;28;19994;-46
2022/04/25 00:04:38;;;;;;;;;;;;;;;17.42;65.28;98101.75;2088306;28;19920;-45
2022/04/25 00:05:38;;;;;;;;;;;;;;;17.41;65.27;98107.31;2083590;28;20039;-49
2022/04/25 00:06:40;;;;;;;;;;;;;;;17.42;65.39;98098.25;2088209;28;19929;-48
2022/04/25 00:07:40;;;;;;;;;;;;;;;17.43;64.99;98102.56;2087414;28;19920;-48
2022/04/25 00:08:42;;;;;;;;;;;;;;;17.41;65.14;98107.31;2088069;28;20531;-44
2022/04/25 00:09:43;;;;;;;;;;;;;;;17.43;65.12;98108.75;2082135;28;19931;-46
2022/04/25 00:10:44;;;;;;;;;;;;;;;17.40;65.35;98103.81;2085969;28;20313;-45
2022/04/25 00:11:45;;;;;;;;;;;;;;;17.41;65.33;98101.94;2085696;28;19931;-46
2022/04/25 00:12:46;;;;;;;;;;;;;;;17.41;65.07;98110.00;2087998;28;19920;-46
2022/04/25 00:13:47;;;;;;;;;;;;;;;17.40;65.42;98101.13;2085465;28;19926;-46
2022/04/25 00:14:48;;;;;;;;;;;;;;;17.40;65.12;98103.81;2089543;28;19969;-46
2022/04/25 00:15:49;;;;;;;;;;;;;;;17.39;65.12;98104.84;2086619;28;20022;-45
2022/04/25 00:16:55;;;;;;;;;;;;;;;17.37;65.46;98109.59;2086661;28;19925;-49
2022/04/25 00:17:58;;;;;;;;;;;;;;;17.39;65.36;98106.72;2082446;28;20910;-47
2022/04/25 00:19:00;;;;;;;;;;;;;;;17.37;65.27;98109.59;2086422;28;22076;-45
2022/04/25 00:20:02;;;;;;;;;;;;;;;17.38;65.08;98111.25;2085475;28;19935;-47
2022/04/25 00:21:02;;;;;;;;;;;;;;;17.39;65.31;98117.44;2085197;28;19925;-47
2022/04/25 00:22:04;;;;;;;;;;;;;;;17.37;65.06;98114.13;2086920;28;20410;-46
2022/04/25 00:23:05;;;;;;;;;;;;;;;17.36;65.13;98113.31;2088268;28;20579;-48
2022/04/25 00:24:07;;;;;;;;;;;;;;;17.35;65.20;98114.34;2091302;28;19934;-46
2022/04/25 00:25:08;;;;;;;;;;;;;;;17.36;65.29;98116.00;2088593;28;20338;-48
2022/04/25 00:26:09;;;;;;;;;;;;;;;17.36;65.18;98113.31;2089251;28;19920;-46
2022/04/25 00:27:11;;;;;;;;;;;;;;;17.37;65.05;98109.59;2086992;28;19967;-46
2022/04/25 00:28:12;;;;;;;;;;;;;;;17.35;65.19;98106.28;2090111;28;19971;-43
2022/04/25 00:29:13;;;;;;;;;;;;;;;17.34;65.36;98103.84;2093162;28;19928;-46
2022/04/25 00:30:15;;;;;;;;;;;;;;;17.35;65.23;98105.47;2088245;28;19948;-48
2022/04/25 00:31:15;;;;;;;;;;;;;;;17.38;65.01;98097.00;2086857;28;19924;-46
2022/04/25 00:32:17;;;;;;;;;;;;;;;17.37;65.24;98092.69;2085097;28;20272;-46
2022/04/25 00:33:20;;;;;;;;;;;;;;;17.33;65.32;98092.28;2088510;28;19921;-50
2022/04/25 00:34:20;;;;;;;;;;;;;;;17.34;65.02;98095.78;2087864;28;19931;-46
2022/04/25 00:35:22;;;;;;;;;;;;;;;17.32;65.28;98095.16;2089143;28;19927;-46
2022/04/25 00:36:22;;;;;;;;;;;;;;;17.34;65.22;98098.47;2089344;28;20011;-48
2022/04/25 00:37:24;;;;;;;;;;;;;;;17.35;65.15;98095.56;2087975;28;20476;-46
2022/04/25 00:38:24;;;;;;;;;;;;;;;17.35;65.08;98100.13;2086014;28;19979;-49
2022/04/25 00:39:26;;;;;;;;;;;;;;;17.35;65.01;98095.56;2084792;28;20019;-46
2022/04/25 00:40:26;;;;;;;;;;;;;;;17.34;65.19;98096.63;2089700;28;20019;-44
2022/04/25 00:41:28;;;;;;;;;;;;;;;17.34;65.16;98093.13;2084314;28;20282;-46
2022/04/25 00:42:28;;;;;;;;;;;;;;;17.35;65.17;98095.56;2087733;28;19936;-45
2022/04/25 00:43:30;;;;;;;;;;;;;;;17.33;65.14;98096.84;2086593;28;19927;-47
2022/04/25 00:44:30;;;;;;;;;;;;;;;17.32;65.12;98087.94;2089712;28;20023;-50
2022/04/25 00:45:32;;;;;;;;;;;;;;;17.33;65.20;98092.28;2085853;28;19924;-46
2022/04/25 00:46:35;;;;;;;;;;;;;;;17.32;65.18;98087.13;2081485;28;19927;-47
2022/04/25 00:47:36;;;;;;;;;;;;;;;17.31;65.22;98093.53;2086427;28;19935;-46
2022/04/25 00:48:38;;;;;;;;;;;;;;;17.31;65.07;98089.00;2087969;28;19920;-46
2022/04/25 00:49:41;;;;;;;;;;;;;;;17.30;65.20;98086.50;2085624;28;19964;-45
2022/04/25 00:50:41;;;;;;;;;;;;;;;17.33;65.08;98086.13;2090380;28;20014;-44
2022/04/25 00:51:43;;;;;;;;;;;;;;;17.33;65.05;98086.13;2088041;28;19928;-46
2022/04/25 00:52:44;;;;;;;;;;;;;;;17.32;65.12;98089.81;2088399;28;19935;-46
2022/04/25 00:53:46;;;;;;;;;;;;;;;17.31;65.07;98088.16;2085080;28;19932;-46
2022/04/25 00:54:46;;;;;;;;;;;;;;;17.34;64.93;98087.75;2086225;28;19928;-48
2022/04/25 00:55:48;;;;;;;;;;;;;;;17.34;64.97;98088.56;2082693;28;19929;-48
2022/04/25 00:56:49;;;;;;;;;;;;;;;17.30;65.09;98084.69;2087003;28;19921;-45
2022/04/25 00:57:52;;;;;;;;;;;;;;;17.29;65.11;98090.22;2088460;28;20028;-49
2022/04/25 00:58:52;;;;;;;;;;;;;;;17.30;65.15;98081.16;2088834;28;19931;-46
2022/04/25 00:59:55;;;;;;;;;;;;;;;17.30;65.20;98086.50;2087758;28;19931;-47
2022/04/25 01:00:55;;;;;;;;;;;;;;;17.29;65.17;98083.00;2089369;28;19946;-46
2022/04/25 01:01:57;;;;;;;;;;;;;;;17.30;65.11;98084.69;2083312;28;19928;-44
2022/04/25 01:02:57;;;;;;;;;;;;;;;17.31;65.23;98088.16;2087937;28;19998;-47
2022/04/25 01:04:00;;;;;;;;;;;;;;;17.32;64.89;98085.25;2091352;28;19927;-46
2022/04/25 01:05:04;;;;;;;;;;;;;;;17.32;65.12;98084.44;2089697;28;19924;-46
2022/04/25 01:06:05;;;;;;;;;;;;;;;17.30;64.96;98076.63;2089374;28;20515;-50
2022/04/25 01:07:06;;;;;;;;;;;;;;;17.29;65.01;98085.69;2092906;28;19928;-47
2022/04/25 01:08:07;;;;;;;;;;;;;;;17.30;64.88;98083.81;2088063;28;19924;-45
2022/04/25 01:09:09;;;;;;;;;;;;;;;17.30;64.96;98082.00;2088773;28;20386;-48
2022/04/25 01:10:10;;;;;;;;;;;;;;;17.30;64.90;98081.16;2084915;28;19940;-47
2022/04/25 01:11:12;;;;;;;;;;;;;;;17.31;64.95;98083.63;2089193;28;19921;-45
2022/04/25 01:12:13;;;;;;;;;;;;;;;17.26;64.97;98080.75;2088877;28;19929;-45
2022/04/25 01:13:14;;;;;;;;;;;;;;;17.29;64.96;98079.50;2091820;28;19990;-46
2022/04/25 01:14:16;;;;;;;;;;;;;;;17.29;65.25;98076.81;2087358;28;19924;-47
2022/04/25 01:15:17;;;;;;;;;;;;;;;17.29;65.00;98087.53;2087204;28;19936;-48
2022/04/25 01:16:18;;;;;;;;;;;;;;;17.30;64.88;98078.47;2089275;28;19924;-46
2022/04/25 01:17:19;;;;;;;;;;;;;;;17.29;64.83;98077.66;2086901;28;20232;-46
2022/04/25 01:18:20;;;;;;;;;;;;;;;17.28;64.95;98084.06;2085066;28;19929;-46
2022/04/25 01:19:23;;;;;;;;;;;;;;;17.28;64.75;98083.22;2080925;28;20681;-43
2022/04/25 01:20:23;;;;;;;;;;;;;;;17.28;64.88;98088.59;2084142;28;19963;-46
2022/04/25 01:21:25;;;;;;;;;;;;;;;17.27;64.89;98087.75;2086232;28;20356;-46
2022/04/25 01:22:28;;;;;;;;;;;;;;;17.25;65.02;98079.09;2089848;28;20287;-45
2022/04/25 01:27:28;;;;;;;;;;;;;;;17.24;65.13;98092.69;2084205;28;20440;-46
2022/04/25 01:28:29;;;;;;;;;;;;;;;17.24;65.07;98079.31;2087298;28;19924;-48
2022/04/25 01:29:30;;;;;;;;;;;;;;;17.25;65.12;98083.66;2085020;28;19985;-47
2022/04/25 01:30:32;;;;;;;;;;;;;;;17.26;64.75;98079.94;2086261;28;20366;-47
2022/04/25 01:31:32;;;;;;;;;;;;;;;17.25;65.06;98081.78;2085269;28;19921;-45
2022/04/25 01:32:34;;;;;;;;;;;;;;;17.27;64.92;98077.03;2084253;28;19924;-46
2022/04/25 01:33:34;;;;;;;;;;;;;;;17.25;64.79;98079.09;2084186;28;19924;-47
2022/04/25 01:34:38;;;;;;;;;;;;;;;17.26;64.88;98074.56;2087934;28;19924;-48
2022/04/25 01:35:40;;;;;;;;;;;;;;;17.25;65.05;98072.94;2085437;28;19929;-48
2022/04/25 01:36:41;;;;;;;;;;;;;;;17.24;64.94;98077.44;2085493;28;20953;-47
2022/04/25 01:37:42;;;;;;;;;;;;;;;17.24;64.86;98071.25;2087621;28;19928;-45
2022/04/25 01:38:44;;;;;;;;;;;;;;;17.24;65.01;98076.63;2083926;28;19928;-45
2022/04/25 01:39:48;;;;;;;;;;;;;;;17.23;65.11;98075.81;2083908;28;19929;-47
2022/04/25 01:40:48;;;;;;;;;;;;;;;17.24;64.89;98076.63;2089404;28;20428;-44
2022/04/25 01:41:50;;;;;;;;;;;;;;;17.24;64.90;98073.94;2087841;28;19931;-44
2022/04/25 01:42:50;;;;;;;;;;;;;;;17.22;64.97;98076.00;2088297;28;20012;-50
2022/04/25 01:43:52;;;;;;;;;;;;;;;17.25;64.97;98072.94;2086965;28;19936;-48
2022/04/25 01:44:54;;;;;;;;;;;;;;;17.25;64.89;98073.75;2085851;28;19985;-47
2022/04/25 01:45:54;;;;;;;;;;;;;;;17.26;64.78;98066.53;2085092;28;19925;-47
2022/04/25 01:46:56;;;;;;;;;;;;;;;17.25;64.77;98072.94;2086133;28;20015;-45
2022/04/25 01:47:56;;;;;;;;;;;;;;;17.26;64.84;98075.38;2085724;28;19924;-48
2022/04/25 01:48:58;;;;;;;;;;;;;;;17.26;64.74;98067.34;2087913;28;20279;-45
2022/04/25 01:49:59;;;;;;;;;;;;;;;17.25;64.71;98073.75;2086970;28;19921;-46
2022/04/25 01:51:00;;;;;;;;;;;;;;;17.25;64.96;98062.22;2092470;28;19924;-46
2022/04/25 01:52:02;;;;;;;;;;;;;;;17.24;64.87;98063.22;2091303;28;19928;-47
2022/04/25 01:53:02;;;;;;;;;;;;;;;17.25;64.67;98067.56;2090040;28;19924;-47
2022/04/25 01:54:05;;;;;;;;;;;;;;;17.23;64.96;98062.41;2084967;28;20007;-54
2022/04/25 01:55:07;;;;;;;;;;;;;;;17.24;64.91;98064.03;2091045;28;19975;-45
2022/04/25 01:56:08;;;;;;;;;;;;;;;17.25;64.79;98064.88;2088280;28;19925;-46
2022/04/25 01:57:09;;;;;;;;;;;;;;;17.23;64.86;98070.44;2086718;28;19924;-44
2022/04/25 01:58:10;;;;;;;;;;;;;;;17.23;64.64;98069.63;2087574;28;19931;-45
2022/04/25 01:59:11;;;;;;;;;;;;;;;17.23;64.80;98075.00;2085032;28;19924;-48
2022/04/25 02:00:13;;;;;;;;;;;;;;;17.23;64.75;98069.63;2087048;28;19963;-48
2022/04/25 02:01:14;;;;;;;;;;;;;;;17.23;65.00;98072.31;2085910;28;20547;-46
2022/04/25 02:02:15;;;;;;;;;;;;;;;17.24;64.64;98072.06;2084809;28;19931;-46
2022/04/25 02:03:16;;;;;;;;;;;;;;;17.24;64.64;98071.25;2089168;28;19924;-44
2022/04/25 02:04:18;;;;;;;;;;;;;;;17.24;64.69;98072.06;2085483;28;19921;-46
2022/04/25 02:05:18;;;;;;;;;;;;;;;17.23;64.79;98069.63;2086318;28;20016;-44
2022/04/25 02:06:20;;;;;;;;;;;;;;;17.20;64.93;98082.41;2085808;28;20339;-46
2022/04/25 02:07:21;;;;;;;;;;;;;;;17.20;64.84;98071.69;2087438;28;19971;-46
2022/04/25 02:08:22;;;;;;;;;;;;;;;17.22;64.78;98073.31;2088607;28;20441;-47
2022/04/25 02:09:25;;;;;;;;;;;;;;;17.20;64.78;98060.97;2087237;28;19929;-46
2022/04/25 02:10:25;;;;;;;;;;;;;;;17.20;64.74;98063.63;2089551;28;19924;-48
2022/04/25 02:11:27;;;;;;;;;;;;;;;17.19;64.63;98064.69;2086929;28;19927;-47
2022/04/25 02:12:28;;;;;;;;;;;;;;;17.19;64.92;98067.38;2087358;28;19927;-47
2022/04/25 02:13:29;;;;;;;;;;;;;;;17.18;64.70;98071.06;2086695;28;19991;-46
2022/04/25 02:14:31;;;;;;;;;;;;;;;17.19;64.81;98072.72;2087135;28;19920;-48
2022/04/25 02:15:31;;;;;;;;;;;;;;;17.17;64.88;98072.09;2087827;28;20113;-47
2022/04/25 02:16:33;;;;;;;;;;;;;;;17.18;64.73;98063.00;2086652;28;20071;-46
2022/04/25 02:17:33;;;;;;;;;;;;;;;17.20;64.77;98073.53;2082567;28;20323;-45
2022/04/25 02:18:35;;;;;;;;;;;;;;;17.22;64.63;98067.97;2084875;28;19920;-47
2022/04/25 02:19:38;;;;;;;;;;;;;;;17.18;64.68;98062.19;2086790;28;19924;-46
2022/04/25 02:20:38;;;;;;;;;;;;;;;17.20;64.83;98065.50;2089323;28;19931;-48
2022/04/25 02:21:40;;;;;;;;;;;;;;;17.22;64.55;98076.84;2087346;28;19967;-43
2022/04/25 02:22:41;;;;;;;;;;;;;;;17.21;64.86;98069.81;2089626;28;19924;-46
2022/04/25 02:23:42;;;;;;;;;;;;;;;17.23;64.65;98067.75;2086746;28;20423;-45
2022/04/25 02:24:45;;;;;;;;;;;;;;;17.19;64.61;98066.53;2089207;28;19967;-46
2022/04/25 02:25:46;;;;;;;;;;;;;;;17.19;64.77;98069.22;2080630;28;21986;-47
2022/04/25 02:26:48;;;;;;;;;;;;;;;17.18;64.63;98062.19;2087175;28;19999;-46
2022/04/25 02:27:48;;;;;;;;;;;;;;;17.15;64.74;98066.13;2085952;28;20011;-44
2022/04/25 02:28:50;;;;;;;;;;;;;;;17.16;64.97;98066.94;2089698;28;19947;-46
2022/04/25 02:29:53;;;;;;;;;;;;;;;17.18;64.69;98065.69;2084817;28;19963;-46
2022/04/25 02:30:55;;;;;;;;;;;;;;;17.16;64.87;98065.09;2090466;28;19974;-48
2022/04/25 02:31:55;;;;;;;;;;;;;;;17.14;64.85;98064.47;2084100;28;19928;-50
2022/04/25 02:32:57;;;;;;;;;;;;;;;17.14;64.75;98064.47;2083424;28;19920;-47
2022/04/25 02:33:58;;;;;;;;;;;;;;;17.15;64.83;98066.13;2084978;28;19964;-48
2022/04/25 02:34:59;;;;;;;;;;;;;;;17.13;64.64;98065.53;2089751;28;19924;-48
2022/04/25 02:36:00;;;;;;;;;;;;;;;17.13;64.72;98070.03;2089742;28;20998;-50
2022/04/25 02:37:02;;;;;;;;;;;;;;;17.16;64.68;98064.25;2090350;28;19924;-46
2022/04/25 02:38:03;;;;;;;;;;;;;;;17.17;64.74;98064.06;2086114;28;19925;-45
2022/04/25 02:39:04;;;;;;;;;;;;;;;17.17;64.77;98058.69;2089007;28;19924;-48
2022/04/25 02:40:07;;;;;;;;;;;;;;;17.15;64.69;98055.41;2089228;28;19920;-47
2022/04/25 02:41:09;;;;;;;;;;;;;;;17.15;64.82;98057.25;2089568;28;20603;-50
2022/04/25 02:42:10;;;;;;;;;;;;;;;17.15;64.65;98052.72;2087029;28;20479;-46
2022/04/25 02:43:11;;;;;;;;;;;;;;;17.12;64.82;98049.63;2087469;28;19986;-45
2022/04/25 02:44:12;;;;;;;;;;;;;;;17.14;64.77;98056.44;2088165;28;19924;-46
2022/04/25 02:45:13;;;;;;;;;;;;;;;17.16;64.77;98058.91;2087495;28;20375;-48
2022/04/25 02:46:16;;;;;;;;;;;;;;;17.15;64.60;98057.25;2084413;28;20393;-45
2022/04/25 02:47:17;;;;;;;;;;;;;;;17.13;64.80;98053.94;2086051;28;19921;-44
2022/04/25 02:48:18;;;;;;;;;;;;;;;17.13;64.77;98059.31;2082060;28;19971;-45
2022/04/25 02:49:20;;;;;;;;;;;;;;;17.11;64.89;98048.81;2086264;28;19948;-46
2022/04/25 02:50:20;;;;;;;;;;;;;;;17.15;64.74;98049.22;2085486;28;19921;-47
2022/04/25 02:51:22;;;;;;;;;;;;;;;17.16;64.77;98059.75;2088060;28;19934;-46
2022/04/25 02:52:22;;;;;;;;;;;;;;;17.15;64.50;98051.91;2086398;28;19925;-49
2022/04/25 02:53:24;;;;;;;;;;;;;;;17.16;64.70;98054.38;2086449;28;19932;-47
2022/04/25 02:54:24;;;;;;;;;;;;;;;17.14;64.75;98053.75;2087865;28;19920;-45
2022/04/25 02:55:27;;;;;;;;;;;;;;;17.15;64.67;98058.06;2084833;28;19978;-49
2022/04/25 02:56:28;;;;;;;;;;;;;;;17.17;64.72;98055.19;2086969;28;19924;-44
2022/04/25 02:57:29;;;;;;;;;;;;;;;17.15;64.66;98051.91;2086446;28;20333;-47
2022/04/25 02:58:30;;;;;;;;;;;;;;;17.14;64.81;98056.44;2085106;28;19931;-45
2022/04/25 02:59:32;;;;;;;;;;;;;;;17.15;64.74;98050.03;2087345;28;20752;-47
2022/04/25 03:00:33;;;;;;;;;;;;;;;17.15;64.78;98055.41;2086484;28;19924;-45
2022/04/25 03:01:35;;;;;;;;;;;;;;;17.15;64.51;98050.03;2086004;28;19920;-46
2022/04/25 03:02:35;;;;;;;;;;;;;;;17.15;64.64;98055.41;2086196;28;20038;-46
2022/04/25 03:03:38;;;;;;;;;;;;;;;17.13;64.57;98049.44;2088971;28;20606;-44
2022/04/25 03:04:38;;;;;;;;;;;;;;;17.11;64.61;98048.81;2087037;28;20011;-44
2022/04/25 03:05:40;;;;;;;;;;;;;;;17.14;64.84;98053.75;2089492;28;19962;-44
2022/04/25 03:06:42;;;;;;;;;;;;;;;17.15;64.73;98052.72;2088251;28;19925;-45
2022/04/25 03:07:42;;;;;;;;;;;;;;;17.12;64.83;98055.81;2088566;28;19920;-45
2022/04/25 03:08:44;;;;;;;;;;;;;;;17.13;64.72;98052.13;2084866;28;20306;-44
2022/04/25 03:09:44;;;;;;;;;;;;;;;17.14;64.50;98051.09;2083786;28;19959;-49
2022/04/25 03:10:47;;;;;;;;;;;;;;;17.11;64.68;98048.81;2085106;28;19925;-45
2022/04/25 03:11:50;;;;;;;;;;;;;;;17.09;64.87;98048.19;2091302;28;20001;-45
2022/04/25 03:12:51;;;;;;;;;;;;;;;17.12;64.74;98045.09;2088662;28;19936;-46
2022/04/25 03:13:52;;;;;;;;;;;;;;;17.11;64.63;98051.50;2083837;28;20363;-46
2022/04/25 03:14:54;;;;;;;;;;;;;;;17.12;64.77;98041.59;2088243;28;19935;-47
2022/04/25 03:15:54;;;;;;;;;;;;;;;17.12;64.68;98041.59;2085693;28;19924;-48
2022/04/25 03:16:56;;;;;;;;;;;;;;;17.11;64.58;98043.47;2083507;28;19928;-48
2022/04/25 03:17:56;;;;;;;;;;;;;;;17.12;64.75;98031.69;2086022;28;19921;-48
2022/04/25 03:18:58;;;;;;;;;;;;;;;17.12;64.48;98042.41;2089056;28;19988;-46
2022/04/25 03:19:59;;;;;;;;;;;;;;;17.14;64.50;98043.03;2084469;28;19928;-45
2022/04/25 03:21:01;;;;;;;;;;;;;;;17.14;64.52;98043.03;2087643;28;19924;-48
2022/04/25 03:22:01;;;;;;;;;;;;;;;17.12;64.56;98042.41;2084446;28;19935;-46
2022/04/25 03:23:04;;;;;;;;;;;;;;;17.11;64.60;98037.28;2087108;28;19951;-44
2022/04/25 03:24:06;;;;;;;;;;;;;;;17.11;64.58;98034.59;2084607;28;19959;-51
2022/04/25 03:25:07;;;;;;;;;;;;;;;17.09;64.60;98036.66;2088297;28;19936;-47
2022/04/25 03:26:10;;;;;;;;;;;;;;;17.08;64.80;98041.19;2086674;28;20476;-47
2022/04/25 03:27:10;;;;;;;;;;;;;;;17.10;64.69;98033.75;2089256;28;20015;-45
2022/04/25 03:28:12;;;;;;;;;;;;;;;17.10;64.57;98036.44;2085042;28;19947;-47
2022/04/25 03:29:14;;;;;;;;;;;;;;;17.09;64.57;98037.47;2085141;28;19928;-47
2022/04/25 03:30:14;;;;;;;;;;;;;;;17.05;64.76;98028.22;2086304;28;20178;-46
2022/04/25 03:31:16;;;;;;;;;;;;;;;17.07;64.70;98031.50;2086388;28;20703;-49
2022/04/25 03:32:16;;;;;;;;;;;;;;;17.07;64.69;98028.81;2086380;28;19928;-45
2022/04/25 03:33:19;;;;;;;;;;;;;;;17.08;64.54;98029.66;2088945;28;19921;-47
2022/04/25 03:34:19;;;;;;;;;;;;;;;17.08;64.58;98027.81;2085970;28;19929;-48
2022/04/25 03:35:22;;;;;;;;;;;;;;;17.11;64.77;98032.75;2085884;28;19921;-48
2022/04/25 03:36:23;;;;;;;;;;;;;;;17.11;64.59;98032.75;2087409;28;20322;-47
2022/04/25 03:37:26;;;;;;;;;;;;;;;17.10;64.62;98030.25;2089231;28;19929;-44
2022/04/25 03:38:26;;;;;;;;;;;;;;;17.11;64.67;98034.59;2084675;28;19921;-47
2022/04/25 03:39:29;;;;;;;;;;;;;;;17.09;64.68;98031.31;2086711;28;20294;-47
2022/04/25 03:40:29;;;;;;;;;;;;;;;17.10;64.47;98033.75;2089133;28;19924;-48
2022/04/25 03:41:32;;;;;;;;;;;;;;;17.09;64.71;98037.47;2085203;28;19921;-48
2022/04/25 03:42:34;;;;;;;;;;;;;;;17.08;64.60;98027.81;2087698;28;19927;-49
2022/04/25 03:43:35;;;;;;;;;;;;;;;17.08;64.52;98035.84;2086824;28;19920;-50
2022/04/25 03:44:36;;;;;;;;;;;;;;;17.08;64.59;98033.16;2089811;28;20331;-45
2022/04/25 03:45:40;;;;;;;;;;;;;;;17.10;64.63;98035.63;2083852;28;19932;-47
2022/04/25 03:46:41;;;;;;;;;;;;;;;17.07;64.44;98038.72;2079967;28;19952;-47
2022/04/25 03:47:43;;;;;;;;;;;;;;;17.08;64.45;98035.84;2089666;28;19932;-45
2022/04/25 03:48:44;;;;;;;;;;;;;;;17.09;64.40;98036.66;2086145;28;19925;-48
2022/04/25 03:49:45;;;;;;;;;;;;;;;17.07;64.65;98039.53;2086681;28;20427;-46
2022/04/25 03:50:46;;;;;;;;;;;;;;;17.10;64.50;98039.13;2084586;28;19936;-49
2022/04/25 03:51:47;;;;;;;;;;;;;;;17.10;64.37;98043.66;2087535;28;19943;-45
2022/04/25 03:52:48;;;;;;;;;;;;;;;17.10;64.59;98047.16;2087655;28;19924;-51
2022/04/25 03:53:50;;;;;;;;;;;;;;;17.10;64.56;98044.47;2089329;28;19920;-52
2022/04/25 03:57:30;;;;;;;;;;;;;;;17.04;64.74;98047.16;2086197;28;20011;-46
2022/04/25 03:58:32;;;;;;;;;;;;;;;17.05;64.58;98051.50;2088985;28;19965;-50
2022/04/25 03:59:32;;;;;;;;;;;;;;;17.05;64.64;98043.44;2087745;28;19924;-48
2022/04/25 04:00:37;;;;;;;;;;;;;;;17.07;64.58;98042.22;2082754;28;20016;-52
2022/04/25 04:01:37;;;;;;;;;;;;;;;17.08;64.47;98035.84;2085722;28;19928;-47
2022/04/25 04:02:39;;;;;;;;;;;;;;;17.08;64.47;98038.53;2085143;28;19921;-48
2022/04/25 04:03:39;;;;;;;;;;;;;;;17.07;64.57;98041.41;2084276;28;19994;-48
2022/04/25 04:04:41;;;;;;;;;;;;;;;17.05;64.46;98038.09;2086771;28;19928;-50
2022/04/25 04:05:42;;;;;;;;;;;;;;;17.07;64.40;98033.34;2086358;28;20367;-49
2022/04/25 04:06:43;;;;;;;;;;;;;;;17.07;64.53;98036.84;2088454;28;19929;-47
2022/04/25 04:07:44;;;;;;;;;;;;;;;17.05;64.56;98041.63;2086468;28;20570;-50
2022/04/25 04:08:46;;;;;;;;;;;;;;;17.07;64.44;98036.84;2084441;28;19951;-52
2022/04/25 04:09:47;;;;;;;;;;;;;;;17.05;64.74;98038.09;2089290;28;20385;-50
2022/04/25 04:10:49;;;;;;;;;;;;;;;17.06;64.49;98045.94;2090267;28;20560;-49
2022/04/25 04:11:49;;;;;;;;;;;;;;;17.03;64.68;98045.53;2086565;28;19925;-50
2022/04/25 04:12:52;;;;;;;;;;;;;;;17.06;64.45;98043.25;2084771;28;19921;-47
2022/04/25 04:13:53;;;;;;;;;;;;;;;17.05;64.47;98041.63;2084538;28;19932;-50
2022/04/25 04:14:54;;;;;;;;;;;;;;;17.04;64.45;98036.47;2084898;28;19920;-50
2022/04/25 04:15:56;;;;;;;;;;;;;;;17.05;64.49;98040.78;2087214;28;21018;-49
2022/04/25 04:16:58;;;;;;;;;;;;;;;17.05;64.56;98040.78;2089907;28;20015;-48
2022/04/25 04:17:59;;;;;;;;;;;;;;;17.06;64.46;98043.25;2088366;28;19931;-50
2022/04/25 04:19:00;;;;;;;;;;;;;;;17.05;64.47;98044.28;2089175;28;20018;-52
2022/04/25 04:20:02;;;;;;;;;;;;;;;17.05;64.54;98046.97;2087126;28;20323;-49
2022/04/25 04:21:04;;;;;;;;;;;;;;;17.03;64.53;98045.53;2088614;28;19994;-50
2022/04/25 04:22:04;;;;;;;;;;;;;;;17.02;64.41;98052.75;2079193;28;19921;-46
2022/04/25 04:23:06;;;;;;;;;;;;;;;17.05;64.47;98046.97;2087081;28;19925;-51
2022/04/25 04:24:10;;;;;;;;;;;;;;;17.05;64.45;98043.44;2087147;28;20429;-50
2022/04/25 04:25:12;;;;;;;;;;;;;;;17.02;64.51;98047.41;2089099;28;19965;-53
2022/04/25 04:26:12;;;;;;;;;;;;;;;17.05;64.48;98048.81;2086612;28;19936;-48
2022/04/25 04:27:14;;;;;;;;;;;;;;;17.03;64.59;98054.41;2089576;28;20413;-48
2022/04/25 04:28:18;;;;;;;;;;;;;;;17.04;64.44;98061.38;2082398;28;19925;-48
2022/04/25 04:29:18;;;;;;;;;;;;;;;17.02;64.69;98054.59;2083625;28;19960;-52
2022/04/25 04:30:20;;;;;;;;;;;;;;;17.02;64.60;98058.13;2087570;28;19928;-50
2022/04/25 04:31:20;;;;;;;;;;;;;;;17.03;64.57;98056.25;2087568;28;19925;-48
2022/04/25 04:32:22;;;;;;;;;;;;;;;17.03;64.61;98059.75;2088608;28;19946;-50
2022/04/25 04:33:23;;;;;;;;;;;;;;;17.05;64.48;98062.22;2085711;28;20532;-47
2022/04/25 04:34:24;;;;;;;;;;;;;;;17.05;64.51;98059.53;2085570;28;19929;-49
2022/04/25 04:36:44;;;;;;;;;;;;;;;17.04;64.37;98066.75;2087150;28;19960;-45
2022/04/25 04:37:45;;;;;;;;;;;;;;;17.04;64.49;98061.38;2088037;28;19935;-49
2022/04/25 04:38:47;;;;;;;;;;;;;;;17.03;64.38;98062.44;2087117;28;19920;-48
2022/04/25 04:39:48;;;;;;;;;;;;;;;17.00;64.50;98060.16;2087260;28;21057;-49
2022/04/25 04:40:49;;;;;;;;;;;;;;;17.02;64.41;98063.47;2085424;28;20295;-49
2022/04/25 04:41:50;;;;;;;;;;;;;;;17.01;64.37;98064.47;2085407;28;19978;-51
2022/04/25 04:42:51;;;;;;;;;;;;;;;17.01;64.52;98061.81;2088874;28;20583;-46
2022/04/25 04:43:56;;;;;;;;;;;;;;;17.02;64.49;98068.84;2084783;28;19931;-45
2022/04/25 04:44:57;;;;;;;;;;;;;;;16.99;64.48;98071.91;2086881;28;19924;-49
2022/04/25 04:45:58;;;;;;;;;;;;;;;17.00;64.65;98073.56;2087836;28;19925;-49
2022/04/25 04:46:59;;;;;;;;;;;;;;;17.01;64.54;98079.75;2087725;28;19927;-53
2022/04/25 04:48:00;;;;;;;;;;;;;;;16.99;64.61;98071.91;2089446;28;19921;-49
2022/04/25 04:49:02;;;;;;;;;;;;;;;17.01;64.42;98074.38;2085442;28;20345;-49
2022/04/25 04:50:02;;;;;;;;;;;;;;;17.00;64.50;98076.25;2087673;28;20065;-47
2022/04/25 04:51:04;;;;;;;;;;;;;;;17.02;64.50;98078.69;2087998;28;19928;-49
2022/04/25 04:52:04;;;;;;;;;;;;;;;16.98;64.54;98068.41;2087180;28;19935;-49
2022/04/25 04:53:07;;;;;;;;;;;;;;;17.01;64.50;98071.69;2084002;28;19920;-50
2022/04/25 04:54:08;;;;;;;;;;;;;;;16.98;64.53;98071.06;2087940;28;20371;-47
2022/04/25 04:55:09;;;;;;;;;;;;;;;17.01;64.33;98077.88;2087878;28;19921;-49
2022/04/25 04:56:10;;;;;;;;;;;;;;;16.99;64.50;98069.22;2085854;28;20392;-49
2022/04/25 04:57:12;;;;;;;;;;;;;;;16.99;64.54;98074.56;2088611;28;19921;-47
2022/04/25 04:58:13;;;;;;;;;;;;;;;16.99;64.40;98071.91;2087511;28;19944;-48
2022/04/25 04:59:15;;;;;;;;;;;;;;;17.00;64.50;98075.41;2086534;28;20375;-49
2022/04/25 05:00:17;;;;;;;;;;;;;;;16.99;64.45;98069.22;2086402;28;19998;-47
2022/04/25 05:01:18;;;;;;;;;;;;;;;16.99;64.44;98082.59;2087008;28;19928;-48
2022/04/25 05:02:19;;;;;;;;;;;;;;;16.97;64.57;98076.66;2088231;28;19935;-45
2022/04/25 05:03:21;;;;;;;;;;;;;;;16.98;64.64;98076.44;2089043;28;20015;-49
2022/04/25 05:04:21;;;;;;;;;;;;;;;16.98;64.53;98080.97;2089474;28;19921;-49
2022/04/25 05:05:23;;;;;;;;;;;;;;;16.97;64.50;98077.47;2088014;28;19999;-47
2022/04/25 05:06:24;;;;;;;;;;;;;;;16.98;64.47;98070.25;2087051;28;19929;-49
2022/04/25 05:07:25;;;;;;;;;;;;;;;16.98;64.39;98078.28;2088702;28;19930;-48
2022/04/25 05:08:26;;;;;;;;;;;;;;;16.99;64.53;98074.56;2087169;28;20047;-50
2022/04/25 05:09:27;;;;;;;;;;;;;;;16.98;64.44;98078.28;2087392;28;20624;-45
2022/04/25 05:10:29;;;;;;;;;;;;;;;16.98;64.33;98078.28;2087795;28;20472;-49
2022/04/25 05:11:30;;;;;;;;;;;;;;;16.98;64.37;98073.75;2088521;28;19931;-49
2022/04/25 05:12:42;;;;;;;;;;;;;;;16.96;64.48;98075.00;2090044;28;19921;-50
2022/04/25 05:13:43;;;;;;;;;;;;;;;16.95;64.48;98068.81;2084163;28;19928;-48
2022/04/25 05:14:45;;;;;;;;;;;;;;;16.94;64.52;98067.19;2087738;28;19927;-51
2022/04/25 05:15:47;;;;;;;;;;;;;;;16.96;64.56;98062.41;2085143;28;20005;-51
2022/04/25 05:16:47;;;;;;;;;;;;;;;16.96;64.46;98072.31;2087449;28;19964;-49
2022/04/25 05:17:50;;;;;;;;;;;;;;;16.98;64.53;98078.28;2088969;28;19932;-50
2022/04/25 05:18:50;;;;;;;;;;;;;;;16.98;64.31;98073.75;2087386;28;19924;-49
2022/04/25 05:19:52;;;;;;;;;;;;;;;16.98;64.53;98079.13;2087828;28;20462;-53
2022/04/25 05:20:53;;;;;;;;;;;;;;;16.98;64.46;98075.63;2088145;28;19924;-46
2022/04/25 05:21:55;;;;;;;;;;;;;;;16.97;64.57;98082.84;2089471;28;20387;-50
2022/04/25 05:22:56;;;;;;;;;;;;;;;16.95;64.56;98082.22;2088562;28;19920;-48
2022/04/25 05:23:57;;;;;;;;;;;;;;;16.97;64.50;98082.00;2086686;28;19988;-49
2022/04/25 05:24:58;;;;;;;;;;;;;;;16.96;64.40;98080.34;2088487;28;20023;-48
2022/04/25 05:26:00;;;;;;;;;;;;;;;16.97;64.32;98082.84;2088650;28;19921;-52
2022/04/25 05:27:01;;;;;;;;;;;;;;;16.99;64.38;98085.28;2089399;28;19925;-52
2022/04/25 05:28:03;;;;;;;;;;;;;;;16.96;64.51;98081.16;2086914;28;19921;-52